Time;durP1;ratioP1;P1;durP2;ratioP2;P2;SDS_P1;SDS_P2;PMS_P1;PMS_P2;Temp;Humidity;BMP_temperature;BMP_pressure;BME280_temperature;BME280_humidity;BME280_pressure;Samples;Min_cycle;Max_cycle;Signal;HPM_P1;HPM_P2
2022/09/23 00:01:20;;;;;;;4.07;2.88;;;;;;;8.17;100.00;100440.88;6278861;22;20014;-87
2022/09/23 00:03:47;;;;;;;5.43;3.00;;;;;;;8.16;100.00;100437.31;6305737;22;20011;-87
2022/09/23 00:06:18;;;;;;;3.88;2.92;;;;;;;8.13;100.00;100445.66;6306807;22;20033;-80
2022/09/23 00:08:44;;;;;;;3.95;2.80;;;;;;;8.11;100.00;100432.22;6306012;22;20015;-79
2022/09/23 00:11:13;;;;;;;4.75;2.88;;;;;;;8.06;100.00;100435.44;6305618;22;20011;-79
2022/09/23 00:13:40;;;;;;;5.20;3.30;;;;;;;8.03;100.00;100425.22;6278203;22;20007;-79
2022/09/23 00:16:08;;;;;;;4.80;3.60;;;;;;;7.94;100.00;100422.13;6278567;22;20007;-79
2022/09/23 00:18:34;;;;;;;5.07;3.70;;;;;;;7.84;100.00;100417.53;6305346;22;20037;-79
2022/09/23 00:21:04;;;;;;;5.60;3.50;;;;;;;7.71;100.00;100421.97;6305869;22;20003;-79
2022/09/23 00:23:30;;;;;;;4.78;3.50;;;;;;;7.48;100.00;100423.31;6252577;22;20438;-79
2022/09/23 00:26:00;;;;;;;5.20;3.90;;;;;;;7.36;100.00;100425.81;6305342;22;20007;-86
2022/09/23 00:28:26;;;;;;;5.95;3.72;;;;;;;7.17;100.00;100415.28;6278722;22;20015;-87
2022/09/23 00:30:51;;;;;;;4.75;3.63;;;;;;;7.25;100.00;100414.84;6278513;22;20019;-87
2022/09/23 00:33:17;;;;;;;5.63;3.90;;;;;;;7.16;100.00;100411.75;6278477;22;20038;-88
2022/09/23 00:35:42;;;;;;;5.88;4.00;;;;;;;6.98;100.00;100408.34;6306447;22;20068;-86
2022/09/23 00:38:08;;;;;;;6.57;4.43;;;;;;;6.93;100.00;100411.50;6306008;22;20015;-87
2022/09/23 00:40:35;;;;;;;5.45;4.05;;;;;;;6.80;100.00;100405.66;6305830;22;20315;-86
2022/09/23 00:43:00;;;;;;;6.05;4.05;;;;;;;6.88;100.00;100409.16;6277737;22;20385;-81
2022/09/23 00:45:27;;;;;;;5.13;4.07;;;;;;;6.91;100.00;100405.63;6305846;22;20026;-86
2022/09/23 00:48:00;;;;;;;4.70;3.63;;;;;;;6.93;100.00;100401.25;6305466;22;20360;-87
2022/09/23 00:50:33;;;;;;;5.25;3.90;;;;;;;7.04;100.00;100409.47;6278856;22;20080;-87
2022/09/23 00:53:00;;;;;;;4.60;3.65;;;;;;;7.05;100.00;100405.53;6305622;22;20025;-86
2022/09/23 00:55:30;;;;;;;4.80;3.40;;;;;;;7.10;100.00;100399.59;6278682;22;20003;-87
2022/09/23 00:57:58;;;;;;;5.15;4.15;;;;;;;7.01;100.00;100404.75;6278314;22;20082;-86
2022/09/23 01:00:24;;;;;;;4.72;3.75;;;;;;;6.94;100.00;100394.56;6305927;22;20011;-87
2022/09/23 01:02:49;;;;;;;5.75;3.60;;;;;;;6.94;100.00;100400.09;6278230;22;20407;-87
2022/09/23 01:05:16;;;;;;;6.22;3.92;;;;;;;6.88;100.00;100406.41;6304930;22;20015;-79
2022/09/23 01:07:42;;;;;;;6.65;3.70;;;;;;;6.76;100.00;100409.63;6276778;22;20015;-78
2022/09/23 01:10:09;;;;;;;5.88;3.80;;;;;;;6.78;100.00;100412.78;6304266;22;20039;-79
2022/09/23 01:12:55;;;;;;;7.18;4.32;;;;;;;6.70;100.00;100411.25;6277365;22;20038;-79
2022/09/23 01:15:24;;;;;;;6.35;4.18;;;;;;;6.60;100.00;100403.81;6282465;22;20387;-79
2022/09/23 01:18:21;;;;;;;5.75;4.03;;;;;;;6.66;100.00;100410.47;6277452;22;20003;-79
2022/09/23 01:21:08;;;;;;;6.35;3.80;;;;;;;6.53;100.00;100410.94;6304133;22;20453;-81
2022/09/23 01:23:52;;;;;;;4.72;3.60;;;;;;;6.51;100.00;100404.25;6277967;22;20398;-78
2022/09/23 01:26:42;;;;;;;4.78;3.78;;;;;;;6.52;100.00;100406.59;6305296;22;20019;-79
2022/09/23 01:29:26;;;;;;;4.38;3.30;;;;;;;6.57;100.00;100397.91;6304841;22;20096;-79
2022/09/23 01:32:01;;;;;;;5.20;3.50;;;;;;;6.60;100.00;100406.56;6305324;22;20045;-78
2022/09/23 01:34:53;;;;;;;5.20;3.28;;;;;;;6.61;100.00;100397.09;6305344;22;20011;-80
2022/09/23 01:37:35;;;;;;;4.45;3.13;;;;;;;6.55;100.00;100394.78;6245786;22;20492;-78
2022/09/23 01:40:24;;;;;;;6.28;3.53;;;;;;;6.60;100.00;100406.56;6277383;22;20015;-79
2022/09/23 01:42:53;;;;;;;4.10;3.50;;;;;;;6.64;100.00;100405.34;6277676;22;20011;-79
2022/09/23 01:45:53;;;;;;;5.32;3.45;;;;;;;6.68;100.00;100403.38;6252397;22;20011;-79
2022/09/23 01:48:56;;;;;;;5.20;4.00;;;;;;;6.70;100.00;100402.97;6253324;22;20019;-79
2022/09/23 01:51:28;;;;;;;4.45;3.78;;;;;;;6.63;100.00;100401.06;6126010;23;20017;-79
2022/09/23 01:54:04;;;;;;;5.95;3.50;;;;;;;6.50;100.00;100388.91;6255434;22;20387;-79
2022/09/23 01:56:38;;;;;;;4.80;3.80;;;;;;;6.51;100.00;100394.00;6305102;22;20011;-79
2022/09/23 01:59:11;;;;;;;4.93;3.75;;;;;;;6.51;100.00;100410.53;6277708;22;20018;-88
2022/09/23 02:01:49;;;;;;;5.45;3.63;;;;;;;6.43;100.00;100402.72;6278434;22;20069;-79
2022/09/23 02:04:22;;;;;;;6.13;3.40;;;;;;;6.33;100.00;100398.81;6278046;22;20461;-79
2022/09/23 02:06:53;;;;;;;5.60;3.30;;;;;;;6.32;100.00;100391.72;6252528;22;20034;-79
2022/09/23 02:09:24;;;;;;;4.78;3.30;;;;;;;6.39;100.00;100394.44;6278731;22;20015;-79
2022/09/23 02:11:51;;;;;;;4.85;2.95;;;;;;;6.44;100.00;100393.25;6278962;22;20015;-79
2022/09/23 02:14:24;;;;;;;4.18;3.20;;;;;;;6.40;100.00;100396.03;6279230;22;20007;-78
2022/09/23 02:16:55;;;;;;;5.22;3.60;;;;;;;6.31;100.00;100401.16;6254315;22;20015;-79
2022/09/23 02:19:25;;;;;;;5.22;3.40;;;;;;;6.30;100.00;100387.81;6253798;22;20046;-79
2022/09/23 02:21:59;;;;;;;6.97;3.85;;;;;;;6.35;100.00;100392.91;6307106;22;20018;-87
2022/09/23 02:24:29;;;;;;;4.43;3.60;;;;;;;6.37;100.00;100394.06;6307246;22;20012;-87
2022/09/23 02:27:17;;;;;;;5.47;3.60;;;;;;;6.37;100.00;100394.06;6307333;22;19999;-87
2022/09/23 02:30:07;;;;;;;5.68;3.78;;;;;;;6.38;100.00;100395.66;6306325;22;20022;-87
2022/09/23 02:32:36;;;;;;;4.53;3.47;;;;;;;6.39;100.00;100393.69;6280121;22;20015;-87
2022/09/23 02:35:25;;;;;;;4.15;3.38;;;;;;;6.44;100.00;100394.03;6307579;22;20011;-86
2022/09/23 02:38:04;;;;;;;4.93;3.42;;;;;;;6.43;100.00;100386.19;6306911;22;20353;-86
2022/09/23 02:40:37;;;;;;;4.80;3.30;;;;;;;6.42;100.00;100388.16;6306254;22;20380;-87
2022/09/23 02:43:32;;;;;;;5.78;4.18;;;;;;;6.49;100.00;100388.13;6279405;22;20022;-88
2022/09/23 02:45:58;;;;;;;5.90;4.00;;;;;;;6.50;100.00;100386.94;6307863;22;20094;-87
2022/09/23 02:48:33;;;;;;;4.40;3.20;;;;;;;6.42;100.00;100385.41;6306913;22;20026;-88
2022/09/23 02:51:01;;;;;;;4.25;3.38;;;;;;;6.32;100.00;100386.22;6279910;22;20015;-88
2022/09/23 02:53:27;;;;;;;4.68;3.45;;;;;;;6.35;100.00;100390.91;6307016;22;20011;-87
2022/09/23 02:55:53;;;;;;;4.63;3.63;;;;;;;6.36;100.00;100387.00;6307393;22;20019;-88
2022/09/23 02:58:18;;;;;;;4.88;3.70;;;;;;;6.32;100.00;100377.94;6306616;22;20007;-79
2022/09/23 03:01:06;;;;;;;5.10;3.53;;;;;;;6.34;100.00;100380.31;6253681;22;20042;-79
2022/09/23 03:03:42;;;;;;;4.82;3.20;;;;;;;6.31;100.00;100381.88;6279165;22;20756;-79
2022/09/23 03:06:27;;;;;;;5.43;3.45;;;;;;;6.31;100.00;100381.88;6253932;22;20065;-79
2022/09/23 03:08:58;;;;;;;4.88;3.50;;;;;;;6.25;100.00;100375.22;6279525;22;20015;-79
2022/09/23 03:11:24;;;;;;;5.25;3.40;;;;;;;6.14;100.00;100370.94;6279161;22;20448;-79
2022/09/23 03:14:05;;;;;;;4.53;3.38;;;;;;;6.08;100.00;100385.13;6306596;22;20011;-79
2022/09/23 03:16:55;;;;;;;4.50;3.63;;;;;;;5.91;100.00;100376.91;6280458;22;20333;-79
2022/09/23 03:19:45;;;;;;;5.95;3.80;;;;;;;5.98;100.00;100374.16;6209887;22;20071;-87
2022/09/23 03:22:14;;;;;;;4.53;3.40;;;;;;;6.04;100.00;100381.59;6279245;22;20011;-88
2022/09/23 03:24:43;;;;;;;4.15;3.25;;;;;;;6.02;100.00;100369.41;6279622;22;20011;-86
2022/09/23 03:27:13;;;;;;;5.30;3.65;;;;;;;6.08;100.00;100371.34;6279695;22;20054;-87
2022/09/23 03:29:41;;;;;;;4.50;3.47;;;;;;;6.09;100.00;100366.63;6279410;22;20011;-86
2022/09/23 03:32:07;;;;;;;5.47;3.53;;;;;;;6.10;100.00;100362.69;6306013;22;20025;-87
2022/09/23 03:34:33;;;;;;;5.22;3.45;;;;;;;6.12;100.00;100371.34;6279211;22;20085;-88
2022/09/23 03:36:59;;;;;;;4.63;3.55;;;;;;;5.95;100.00;100364.69;6306330;22;20015;-86
2022/09/23 03:40:07;;;;;;;4.90;3.53;;;;;;;5.93;100.00;100374.53;6306545;22;20004;-88
2022/09/23 03:42:33;;;;;;;4.13;3.25;;;;;;;5.79;100.00;100358.81;6127794;23;20383;-87
2022/09/23 03:45:00;;;;;;;5.25;3.85;;;;;;;5.71;100.00;100372.97;6282228;22;20031;-88
2022/09/23 03:47:27;;;;;;;7.95;4.30;;;;;;;5.69;100.00;100364.34;6279487;22;20015;-88
2022/09/23 03:49:53;;;;;;;7.75;4.53;;;;;;;5.68;100.00;100376.53;6277955;22;20114;-91
2022/09/23 03:52:21;;;;;;;8.23;4.15;;;;;;;5.66;100.00;100362.38;6278674;22;20015;-90
2022/09/23 03:54:46;;;;;;;5.30;4.00;;;;;;;5.62;100.00;100360.41;6278723;22;20007;-89
2022/09/23 03:57:12;;;;;;;5.00;3.88;;;;;;;5.64;100.00;100362.78;6305321;22;20018;-79
2022/09/23 03:59:38;;;;;;;4.70;3.70;;;;;;;5.60;100.00;100349.03;6305816;22;20012;-79
2022/09/23 04:02:06;;;;;;;5.65;3.80;;;;;;;5.54;100.00;100358.09;6278109;22;20073;-79
2022/09/23 04:04:33;;;;;;;5.45;3.78;;;;;;;5.39;100.00;100360.06;6306024;22;20015;-79
2022/09/23 04:06:59;;;;;;;5.57;4.30;;;;;;;5.36;100.00;100368.31;6278067;22;20003;-79
2022/09/23 04:09:25;;;;;;;5.85;4.05;;;;;;;5.36;100.00;100373.81;6305393;22;20015;-79
2022/09/23 04:11:51;;;;;;;6.55;4.32;;;;;;;5.33;100.00;100367.13;6303273;22;20460;-88
2022/09/23 04:14:18;;;;;;;4.72;3.97;;;;;;;5.34;100.00;100365.19;6305340;22;20043;-89
2022/09/23 04:16:44;;;;;;;5.38;4.05;;;;;;;5.35;100.00;100350.22;6301556;22;20022;-88
2022/09/23 04:19:10;;;;;;;5.20;4.05;;;;;;;5.37;100.00;100367.91;6276645;22;20042;-88
2022/09/23 04:21:38;;;;;;;6.22;4.28;;;;;;;5.33;100.00;100367.13;6304951;22;20050;-89
2022/09/23 04:24:03;;;;;;;6.68;4.72;;;;;;;5.26;100.00;100358.09;6275920;22;20235;-88
2022/09/23 04:26:30;;;;;;;7.53;4.72;;;;;;;5.18;100.00;100357.28;6305180;22;20607;-88
2022/09/23 04:28:55;;;;;;;6.07;4.78;;;;;;;5.22;100.00;100360.84;6277629;22;20444;-88
2022/09/23 04:31:23;;;;;;;5.63;4.97;;;;;;;5.21;100.00;100361.25;6302840;22;20042;-87
2022/09/23 04:33:50;;;;;;;5.53;4.72;;;;;;;5.21;100.00;100367.53;6305392;22;20053;-79
2022/09/23 04:36:15;;;;;;;5.10;4.40;;;;;;;5.23;100.00;100367.91;6250728;22;20432;-79
2022/09/23 04:38:46;;;;;;;6.55;4.53;;;;;;;5.25;100.00;100367.53;6301176;22;20019;-79
2022/09/23 04:41:12;;;;;;;6.13;4.10;;;;;;;5.30;100.00;100369.91;6303559;22;20010;-78
2022/09/23 04:43:37;;;;;;;5.18;4.18;;;;;;;5.32;100.00;100362.03;6303397;22;20003;-78
2022/09/23 04:46:04;;;;;;;6.32;4.28;;;;;;;5.25;100.00;100368.31;6301417;22;20061;-78
2022/09/23 04:48:30;;;;;;;4.82;3.97;;;;;;;5.20;100.00;100368.69;6277268;22;20065;-79
2022/09/23 04:51:09;;;;;;;5.40;4.13;;;;;;;5.09;100.00;100359.66;6302036;22;20003;-78
2022/09/23 04:53:36;;;;;;;5.70;4.38;;;;;;;5.23;100.00;100367.13;6301563;22;20441;-79
2022/09/23 04:56:06;;;;;;;6.43;4.80;;;;;;;5.26;100.00;100363.59;6273966;22;20089;-78
2022/09/23 04:58:33;;;;;;;6.72;4.05;;;;;;;5.26;100.00;100363.59;6273857;22;20041;-78
2022/09/23 05:01:10;;;;;;;5.50;3.85;;;;;;;5.32;100.00;100360.06;6301132;22;20023;-78
2022/09/23 05:03:36;;;;;;;6.68;4.80;;;;;;;5.40;100.00;100369.88;6300003;22;20011;-79
2022/09/23 05:06:01;;;;;;;6.32;4.25;;;;;;;5.45;100.00;100377.75;6300988;22;20025;-79
2022/09/23 05:08:27;;;;;;;5.28;4.22;;;;;;;5.41;100.00;100371.47;6273019;22;20003;-80
2022/09/23 05:11:00;;;;;;;5.90;3.90;;;;;;;5.40;100.00;100375.38;6301165;22;20062;-89
2022/09/23 05:13:26;;;;;;;5.43;4.28;;;;;;;5.38;100.00;100372.22;6302250;22;20008;-90
2022/09/23 05:15:59;;;;;;;5.78;4.28;;;;;;;5.33;100.00;100369.88;6302542;22;20022;-87
2022/09/23 05:18:27;;;;;;;6.13;4.03;;;;;;;5.46;100.00;100378.53;6275128;22;20408;-89
2022/09/23 05:20:54;;;;;;;6.63;4.30;;;;;;;5.49;100.00;100381.28;6276090;22;20086;-90
2022/09/23 05:23:20;;;;;;;5.43;4.20;;;;;;;5.62;100.00;100384.41;6305434;22;20073;-87
2022/09/23 05:25:47;;;;;;;6.82;4.15;;;;;;;5.74;100.00;100384.00;6278525;22;20007;-87
2022/09/23 05:28:16;;;;;;;4.32;3.72;;;;;;;5.85;100.00;100386.72;6305416;22;20011;-81
2022/09/23 05:30:43;;;;;;;5.50;4.28;;;;;;;5.90;100.00;100376.13;6283839;22;20085;-89
2022/09/23 05:33:09;;;;;;;5.28;3.90;;;;;;;6.10;100.00;100381.97;6276618;22;20011;-89
2022/09/23 05:35:34;;;;;;;6.10;4.20;;;;;;;6.19;100.00;100393.34;6305613;22;20023;-91
2022/09/23 05:38:00;;;;;;;5.10;3.80;;;;;;;6.30;100.00;100388.59;6305049;22;20357;-87
2022/09/23 05:40:25;;;;;;;5.85;4.00;;;;;;;6.37;100.00;100385.81;6305162;22;20010;-88
2022/09/23 05:42:51;;;;;;;4.95;3.63;;;;;;;6.52;100.00;100379.03;6280058;22;20479;-88
2022/09/23 05:45:16;;;;;;;5.05;3.85;;;;;;;6.70;100.00;100391.94;6307885;22;20007;-89
2022/09/23 05:47:42;;;;;;;4.93;3.85;;;;;;;6.89;100.00;100391.44;6310285;22;20016;-91
2022/09/23 05:50:08;;;;;;;6.63;3.83;;;;;;;7.00;100.00;100386.63;6308767;22;20326;-91
2022/09/23 05:52:34;;;;;;;7.82;4.32;;;;;;;7.18;100.00;100383.75;6309368;22;20072;-92
2022/09/23 05:55:00;;;;;;;5.63;3.88;;;;;;;7.48;100.00;100392.97;6280574;22;20309;-91
2022/09/23 05:57:26;;;;;;;6.40;3.95;;;;;;;7.73;100.00;100389.19;6306968;22;20011;-92
2022/09/23 05:59:51;;;;;;;5.88;3.53;;;;;;;7.93;100.00;100385.44;6278607;22;20019;-87
2022/09/23 06:02:17;;;;;;;4.28;3.25;;;;;;;8.11;100.00;100381.72;6305549;22;20368;-89
2022/09/23 06:04:42;;;;;;;4.10;3.15;;;;;;;8.24;100.00;100394.59;6306576;22;20026;-90
2022/09/23 06:07:08;;;;;;;4.95;3.40;;;;;;;8.32;100.00;100382.28;6306213;22;20003;-91
2022/09/23 06:09:34;;;;;;;4.63;3.70;;;;;;;8.49;100.00;100396.31;6307533;22;20791;-91
2022/09/23 06:12:00;;;;;;;5.15;3.30;;;;;;;8.60;100.00;100386.66;6284422;22;20010;-91
2022/09/23 06:14:26;;;;;;;4.28;3.05;;;;;;;8.78;100.00;100383.66;6312453;22;20011;-91
2022/09/23 06:16:51;;;;;;;4.82;3.40;;;;;;;8.94;100.00;100386.59;6283256;22;20018;-90
2022/09/23 06:19:17;;;;;;;4.25;3.38;;;;;;;9.11;100.00;100382.78;6313101;22;20039;-90
2022/09/23 06:21:42;;;;;;;3.80;3.10;;;;;;;9.20;100.00;100380.28;6305541;22;20007;-92
2022/09/23 06:24:08;;;;;;;4.18;3.20;;;;;;;9.37;100.00;100395.03;6251231;22;20015;-91
2022/09/23 06:26:36;;;;;;;3.97;3.10;;;;;;;9.52;100.00;100390.03;6305854;22;19999;-91
2022/09/23 06:29:07;;;;;;;3.80;3.20;;;;;;;9.74;100.00;100394.03;6306850;22;20660;-78
2022/09/23 06:31:33;;;;;;;5.07;3.20;;;;;;;9.88;100.00;100382.66;6306318;22;20456;-78
2022/09/23 06:33:58;;;;;;;5.53;2.80;;;;;;;10.02;100.00;100389.94;6306177;22;20045;-78
2022/09/23 06:36:24;;;;;;;4.40;3.20;;;;;;;10.03;99.92;100385.97;6306040;22;20338;-78
2022/09/23 06:38:49;;;;;;;4.38;3.17;;;;;;;10.21;99.59;100387.22;6306274;22;20345;-78
2022/09/23 06:41:15;;;;;;;5.25;3.00;;;;;;;10.37;99.83;100392.03;6305886;22;20011;-78
2022/09/23 06:43:41;;;;;;;5.20;2.90;;;;;;;10.53;95.09;100388.56;6278871;22;20070;-78
2022/09/23 06:46:12;;;;;;;5.50;3.42;;;;;;;10.58;95.03;100388.84;6306671;22;20038;-78
2022/09/23 06:48:39;;;;;;;4.68;2.90;;;;;;;10.79;94.52;100392.38;6255950;22;20011;-90
2022/09/23 06:51:06;;;;;;;3.33;2.70;;;;;;;11.00;92.53;100400.22;6312103;22;20015;-91
2022/09/23 06:53:31;;;;;;;3.67;2.90;;;;;;;11.09;91.42;100384.53;6311946;22;20269;-92
2022/09/23 06:56:05;;;;;;;5.90;3.13;;;;;;;11.16;89.84;100389.91;6313079;22;20539;-90
2022/09/23 06:58:32;;;;;;;4.25;3.05;;;;;;;11.17;89.11;100401.78;6313350;22;20019;-91
2022/09/23 07:01:02;;;;;;;4.45;3.28;;;;;;;11.21;88.76;100408.84;6283431;22;20063;-91
2022/09/23 07:03:28;;;;;;;4.40;2.90;;;;;;;11.27;88.53;100394.44;6279744;22;20011;-79
2022/09/23 07:05:55;;;;;;;4.18;2.92;;;;;;;11.39;87.88;100404.84;6279316;22;20019;-79
2022/09/23 07:08:22;;;;;;;5.15;2.80;;;;;;;11.43;87.99;100402.78;6305427;22;19999;-79
2022/09/23 07:10:56;;;;;;;4.57;2.80;;;;;;;11.38;89.00;100406.84;6305941;22;20011;-79
2022/09/23 07:13:21;;;;;;;4.50;2.88;;;;;;;11.63;88.99;100409.03;6278536;22;20039;-79
2022/09/23 07:15:51;;;;;;;6.32;2.90;;;;;;;11.72;87.45;100409.22;6279037;22;20442;-79
2022/09/23 07:18:18;;;;;;;4.05;3.00;;;;;;;11.86;86.77;100399.72;6305561;22;20112;-79
2022/09/23 07:20:45;;;;;;;4.70;2.97;;;;;;;11.95;84.84;100408.22;6305754;22;20345;-79
2022/09/23 07:23:11;;;;;;;4.57;2.67;;;;;;;12.05;83.29;100401.63;6278802;22;20006;-79
2022/09/23 07:25:36;;;;;;;3.80;2.92;;;;;;;12.13;83.24;100412.09;6305152;22;20015;-79
2022/09/23 07:28:02;;;;;;;3.70;2.80;;;;;;;12.20;82.57;100404.78;6305571;22;20064;-79
2022/09/23 07:30:27;;;;;;;4.47;3.00;;;;;;;12.25;83.20;100412.59;6305263;22;20045;-79
2022/09/23 07:32:53;;;;;;;3.78;2.90;;;;;;;12.40;81.83;100402.63;6305538;22;20344;-79
2022/09/23 07:35:18;;;;;;;3.90;2.83;;;;;;;12.42;80.62;100411.28;6305240;22;20007;-79
2022/09/23 07:37:44;;;;;;;3.92;2.97;;;;;;;12.43;81.60;100404.53;6305337;22;20420;-79
2022/09/23 07:40:11;;;;;;;2.75;2.25;;;;;;;12.75;82.42;100396.03;6305005;22;20011;-79
2022/09/23 07:42:38;;;;;;;4.57;2.92;;;;;;;13.05;79.83;100392.72;6278467;22;20011;-79
2022/09/23 07:45:06;;;;;;;3.90;2.90;;;;;;;13.15;80.50;100412.34;6306889;22;20011;-92
2022/09/23 07:47:31;;;;;;;4.25;2.72;;;;;;;13.43;77.56;100409.44;6307449;22;20062;-92
2022/09/23 07:49:57;;;;;;;3.67;3.00;;;;;;;13.42;77.87;100412.69;6307051;22;20062;-92
2022/09/23 07:52:22;;;;;;;3.72;2.97;;;;;;;13.72;78.21;100412.06;6305498;22;20015;-92
2022/09/23 07:54:48;;;;;;;4.28;2.78;;;;;;;13.60;77.69;100407.28;6253748;22;20004;-92
2022/09/23 07:57:13;;;;;;;3.53;2.67;;;;;;;13.59;76.23;100422.44;6317361;22;19996;-93
2022/09/23 07:59:39;;;;;;;3.90;2.55;;;;;;;13.55;76.18;100421.78;6286544;22;20011;-91
2022/09/23 08:02:05;;;;;;;3.95;2.70;;;;;;;13.75;75.74;100427.13;6307043;22;20052;-92
2022/09/23 08:04:31;;;;;;;3.38;2.78;;;;;;;13.72;74.26;100420.44;6280190;22;20007;-79
2022/09/23 08:06:59;;;;;;;4.05;2.53;;;;;;;13.77;74.62;100405.94;6305142;22;20011;-79
2022/09/23 08:09:34;;;;;;;4.90;2.40;;;;;;;13.80;71.53;100413.38;6277790;22;19996;-79
2022/09/23 08:12:01;;;;;;;3.63;2.50;;;;;;;14.06;73.06;100407.75;6305141;22;20011;-79
2022/09/23 08:14:26;;;;;;;5.38;2.60;;;;;;;14.34;71.23;100427.03;6277537;22;20042;-79
2022/09/23 08:16:52;;;;;;;3.40;2.40;;;;;;;14.19;70.73;100419.63;6305037;22;20011;-79
2022/09/23 08:19:18;;;;;;;3.33;2.35;;;;;;;14.26;71.22;100427.75;6304865;22;20003;-79
2022/09/23 08:21:46;;;;;;;5.13;2.40;;;;;;;14.36;69.42;100416.22;6278247;22;20064;-79
2022/09/23 08:24:19;;;;;;;3.70;2.22;;;;;;;14.79;68.25;100425.81;6277690;22;20011;-79
2022/09/23 08:26:46;;;;;;;2.75;2.10;;;;;;;14.75;68.83;100414.78;6303818;22;20037;-79
2022/09/23 08:29:13;;;;;;;3.25;2.45;;;;;;;14.74;67.79;100409.66;6276786;22;20082;-80
2022/09/23 08:31:39;;;;;;;3.33;2.40;;;;;;;14.96;68.31;100418.00;6305297;22;20019;-79
2022/09/23 08:34:05;;;;;;;3.72;2.25;;;;;;;15.03;66.80;100409.34;6277219;22;20314;-79
2022/09/23 08:36:31;;;;;;;2.80;1.95;;;;;;;15.16;67.71;100415.63;6305192;22;20040;-79
2022/09/23 08:38:57;;;;;;;3.67;2.25;;;;;;;15.27;66.39;100415.97;6305319;22;20011;-79
2022/09/23 08:41:46;;;;;;;4.30;2.45;;;;;;;15.28;65.61;100406.34;6278801;22;20349;-80
2022/09/23 08:44:18;;;;;;;3.75;2.42;;;;;;;15.22;66.13;100402.59;6304642;22;20479;-79
2022/09/23 08:46:51;;;;;;;3.75;2.10;;;;;;;15.34;65.38;100404.50;6278147;22;20014;-79
2022/09/23 08:49:32;;;;;;;2.88;2.20;;;;;;;15.85;66.94;100394.38;6276858;22;20322;-79
2022/09/23 08:51:58;;;;;;;4.28;2.10;;;;;;;15.85;64.78;100410.41;6304944;22;20015;-79
2022/09/23 08:54:26;;;;;;;5.60;2.42;;;;;;;16.05;64.16;100399.56;6304621;22;20084;-79
2022/09/23 08:56:54;;;;;;;5.10;2.10;;;;;;;16.24;63.47;100397.53;6278021;22;20090;-79
2022/09/23 08:59:27;;;;;;;3.40;2.55;;;;;;;16.46;64.64;100397.34;6304609;22;20039;-79
2022/09/23 09:02:00;;;;;;;;;;;;;;;16.52;63.08;100389.88;6305551;22;20441;-93
2022/09/23 09:04:34;;;;;;;2.95;2.47;;;;;;;16.73;63.23;100398.13;6278953;22;19934;-92
2022/09/23 09:07:05;;;;;;;4.32;2.63;;;;;;;16.59;59.44;100395.94;6306145;22;20086;-92
2022/09/23 09:10:08;;;;;;;2.90;2.30;;;;;;;16.52;59.74;100399.06;6305890;22;20014;-93
2022/09/23 09:12:46;;;;;;;3.95;2.40;;;;;;;16.66;61.94;100400.47;6305794;22;20019;-94
2022/09/23 09:15:25;;;;;;;4.13;2.60;;;;;;;16.90;59.29;100397.75;6305915;22;20045;-92
2022/09/23 09:18:12;;;;;;;6.32;3.33;;;;;;;17.12;60.36;100389.88;6307098;22;20090;-92
2022/09/23 09:20:59;;;;;;;3.97;2.80;;;;;;;17.21;59.18;100384.25;6254046;22;20011;-92
2022/09/23 09:23:37;;;;;;;2.92;2.33;;;;;;;17.43;58.95;100381.94;6280404;22;20011;-92
2022/09/23 09:26:05;;;;;;;4.70;2.80;;;;;;;16.97;59.09;100386.22;6307678;22;20445;-92
2022/09/23 09:28:50;;;;;;;4.13;2.67;;;;;;;17.01;59.96;100386.81;6307527;22;20003;-93
2022/09/23 09:31:34;;;;;;;4.05;3.00;;;;;;;16.97;60.76;100380.59;6254901;22;20047;-92
2022/09/23 09:34:19;;;;;;;3.50;2.72;;;;;;;17.21;58.93;100387.81;6308105;22;20368;-93
2022/09/23 09:37:07;;;;;;;4.47;2.80;;;;;;;17.56;57.74;100388.09;6307345;22;20022;-93
2022/09/23 09:39:34;;;;;;;2.97;2.50;;;;;;;17.34;56.76;100386.84;6308141;22;20023;-92
2022/09/23 09:41:59;;;;;;;3.35;2.50;;;;;;;17.20;58.69;100385.47;6280717;22;20069;-92
2022/09/23 09:44:34;;;;;;;5.25;2.72;;;;;;;17.17;58.98;100373.19;6280307;22;20011;-91
2022/09/23 09:47:18;;;;;;;3.30;2.60;;;;;;;17.34;58.41;100381.22;6280707;22;20005;-92
2022/09/23 09:49:50;;;;;;;3.70;2.85;;;;;;;17.80;58.18;100379.72;6307444;22;20445;-92
2022/09/23 09:52:26;;;;;;;3.53;2.65;;;;;;;18.08;55.86;100383.09;6307574;22;20051;-92
2022/09/23 09:54:52;;;;;;;3.17;2.55;;;;;;;18.42;55.24;100378.88;6308515;22;20022;-94
2022/09/23 09:57:30;;;;;;;3.38;2.53;;;;;;;18.21;54.29;100375.19;6308906;22;20083;-92
2022/09/23 09:59:56;;;;;;;3.25;2.40;;;;;;;18.47;54.25;100375.41;6307445;22;20411;-90
2022/09/23 10:02:35;;;;;;;3.75;2.30;;;;;;;18.64;51.13;100368.09;6254419;22;20425;-92
2022/09/23 10:05:11;;;;;;;3.75;2.55;;;;;;;18.68;50.88;100367.91;6281793;22;20007;-92
2022/09/23 10:07:37;;;;;;;4.13;2.55;;;;;;;18.65;49.95;100358.38;6281461;22;20050;-92
2022/09/23 10:10:32;;;;;;;3.30;2.42;;;;;;;18.81;48.96;100371.16;6307902;22;20408;-89
2022/09/23 10:13:15;;;;;;;2.75;2.20;;;;;;;18.72;48.76;100363.63;6274732;22;20376;-92
2022/09/23 10:15:42;;;;;;;3.38;2.10;;;;;;;18.53;48.86;100367.88;6281092;22;20011;-92
2022/09/23 10:18:19;;;;;;;3.25;2.10;;;;;;;18.38;50.08;100364.25;6280755;22;20014;-92
2022/09/23 10:20:45;;;;;;;4.07;2.38;;;;;;;18.53;49.35;100357.41;6280731;22;20075;-92
2022/09/23 10:23:22;;;;;;;4.32;2.08;;;;;;;18.81;48.43;100343.06;6280379;22;20034;-92
2022/09/23 10:25:59;;;;;;;4.50;2.75;;;;;;;18.88;49.23;100359.56;6279871;22;20065;-92
2022/09/23 10:28:31;;;;;;;3.45;2.35;;;;;;;19.16;47.52;100357.94;6280148;22;20345;-90
2022/09/23 10:31:04;;;;;;;4.07;2.47;;;;;;;19.16;47.95;100357.94;6306804;22;20035;-90
2022/09/23 10:33:30;;;;;;;5.22;2.45;;;;;;;19.22;47.38;100361.59;6307418;22;20094;-92
2022/09/23 10:35:56;;;;;;;3.50;2.00;;;;;;;19.17;46.87;100353.09;6279297;22;20027;-80
2022/09/23 10:38:22;;;;;;;3.10;2.17;;;;;;;19.12;46.53;100346.13;6305921;22;20007;-80
2022/09/23 10:46:37;;;;;;;3.03;2.10;;;;;;;19.39;45.47;100348.56;6305744;22;20011;-80
2022/09/23 10:49:21;;;;;;;2.22;1.95;;;;;;;19.17;44.13;100339.03;6280292;22;20368;-80
2022/09/23 10:51:53;;;;;;;3.33;2.30;;;;;;;18.86;45.98;100322.72;6305782;22;20103;-80
2022/09/23 10:54:31;;;;;;;3.60;2.80;;;;;;;19.17;45.03;100333.41;6304281;22;20011;-79
2022/09/23 10:57:36;;;;;;;2.60;1.92;;;;;;;19.23;43.43;100326.59;6279661;22;20441;-91
2022/09/23 10:59:54;;;;;;;2.75;2.00;;;;;;;19.34;41.64;100326.75;6283583;22;20034;-91
2022/09/23 11:02:38;;;;;;;2.30;1.80;;;;;;;19.62;42.85;100335.59;6279334;22;20072;-90
2022/09/23 11:05:22;;;;;;;3.25;1.90;;;;;;;19.71;42.88;100329.03;6305665;22;20011;-90
2022/09/23 11:08:03;;;;;;;2.50;1.90;;;;;;;19.63;41.66;100333.56;6306213;22;20015;-91
2022/09/23 11:10:54;;;;;;;2.55;1.88;;;;;;;19.26;41.52;100328.44;6278506;22;20012;-91
2022/09/23 11:13:39;;;;;;;2.60;1.83;;;;;;;19.26;42.54;100322.81;6279093;22;20011;-91
2022/09/23 11:16:29;;;;;;;2.78;1.80;;;;;;;19.04;42.58;100322.50;6305663;22;20015;-91
2022/09/23 11:18:59;;;;;;;2.35;1.90;;;;;;;19.45;42.08;100318.47;6278515;22;20015;-90
2022/09/23 11:21:39;;;;;;;4.25;2.30;;;;;;;19.40;41.20;100298.72;6305507;22;20015;-90
2022/09/23 11:24:30;;;;;;;3.90;2.20;;;;;;;19.38;41.63;100302.00;6277864;22;20011;-91
2022/09/23 11:27:15;;;;;;;2.67;2.00;;;;;;;18.81;43.13;100303.72;6305646;22;20019;-91
2022/09/23 11:30:07;;;;;;;4.00;2.15;;;;;;;19.26;43.81;100291.88;6278382;22;20012;-90
2022/09/23 11:33:12;;;;;;;2.75;1.88;;;;;;;19.91;42.02;100290.41;6277499;22;20025;-89
2022/09/23 11:35:55;;;;;;;5.45;2.10;;;;;;;19.95;42.05;100284.53;6278223;22;20344;-88
2022/09/23 11:38:45;;;;;;;2.38;1.60;;;;;;;19.95;40.15;100284.53;6277035;22;20087;-90
2022/09/23 11:41:18;;;;;;;3.85;1.90;;;;;;;19.40;40.24;100288.22;6251620;22;20011;-89
2022/09/23 11:43:50;;;;;;;4.43;2.10;;;;;;;19.90;40.10;100282.44;6251939;22;20488;-88
2022/09/23 11:46:36;;;;;;;3.65;1.98;;;;;;;19.79;39.61;100285.13;6279176;22;20340;-88
2022/09/23 11:49:05;;;;;;;1.90;1.70;;;;;;;19.78;41.14;100286.41;6303344;22;20019;-88
2022/09/23 11:51:55;;;;;;;2.45;1.88;;;;;;;20.22;39.37;100277.66;6277921;22;20011;-88